sensor_id;sensor_type;location;lat;lon;timestamp;temperature;humidity
12111;DHT22;6119;52.372;8.990;2024-02-15T00:00:44;12.50;99.90
12111;DHT22;6119;52.372;8.990;2024-02-15T00:03:30;12.40;99.90
12111;DHT22;6119;52.372;8.990;2024-02-15T00:06:17;12.50;99.90
12111;DHT22;6119;52.372;8.990;2024-02-15T00:09:04;12.50;99.90
12111;DHT22;6119;52.372;8.990;2024-02-15T00:11:51;12.40;99.90
12111;DHT22;6119;52.372;8.990;2024-02-15T00:14:41;12.50;99.90
12111;DHT22;6119;52.372;8.990;2024-02-15T00:17:28;12.40;99.90
12111;DHT22;6119;52.372;8.990;2024-02-15T00:20:16;12.40;99.90
12111;DHT22;6119;52.372;8.990;2024-02-15T00:23:03;12.50;99.90
12111;DHT22;6119;52.372;8.990;2024-02-15T00:25:52;12.40;99.90
12111;DHT22;6119;52.372;8.990;2024-02-15T00:28:38;12.40;99.90
12111;DHT22;6119;52.372;8.990;2024-02-15T00:31:29;12.50;99.90
12111;DHT22;6119;52.372;8.990;2024-02-15T00:34:15;12.40;99.90
12111;DHT22;6119;52.372;8.990;2024-02-15T00:37:03;12.40;99.90
12111;DHT22;6119;52.372;8.990;2024-02-15T00:39:50;12.40;99.90
12111;DHT22;6119;52.372;8.990;2024-02-15T00:42:37;12.40;99.90
12111;DHT22;6119;52.372;8.990;2024-02-15T00:45:25;12.40;99.90
12111;DHT22;6119;52.372;8.990;2024-02-15T00:48:13;12.40;99.90
12111;DHT22;6119;52.372;8.990;2024-02-15T00:51:00;12.40;99.90
12111;DHT22;6119;52.372;8.990;2024-02-15T00:53:47;12.50;99.90
12111;DHT22;6119;52.372;8.990;2024-02-15T00:56:34;12.50;99.90
12111;DHT22;6119;52.372;8.990;2024-02-15T00:59:20;12.50;99.90
12111;DHT22;6119;52.372;8.990;2024-02-15T01:02:07;12.50;99.90
12111;DHT22;6119;52.372;8.990;2024-02-15T01:04:55;12.50;99.90
12111;DHT22;6119;52.372;8.990;2024-02-15T01:07:43;12.50;99.90
12111;DHT22;6119;52.372;8.990;2024-02-15T01:10:30;12.50;99.90
12111;DHT22;6119;52.372;8.990;2024-02-15T01:13:16;12.50;99.90
12111;DHT22;6119;52.372;8.990;2024-02-15T01:16:04;12.50;99.90
12111;DHT22;6119;52.372;8.990;2024-02-15T01:18:50;12.50;99.90
12111;DHT22;6119;52.372;8.990;2024-02-15T01:21:39;12.50;99.90
12111;DHT22;6119;52.372;8.990;2024-02-15T01:24:25;12.50;99.90
12111;DHT22;6119;52.372;8.990;2024-02-15T01:27:12;12.50;99.90
12111;DHT22;6119;52.372;8.990;2024-02-15T01:29:58;12.40;99.90
12111;DHT22;6119;52.372;8.990;2024-02-15T01:32:45;12.50;99.90
12111;DHT22;6119;52.372;8.990;2024-02-15T01:35:32;12.50;99.90
12111;DHT22;6119;52.372;8.990;2024-02-15T01:38:20;12.50;99.90
12111;DHT22;6119;52.372;8.990;2024-02-15T01:41:07;12.50;99.90
12111;DHT22;6119;52.372;8.990;2024-02-15T01:43:54;12.50;99.90
12111;DHT22;6119;52.372;8.990;2024-02-15T01:46:41;12.50;99.90
12111;DHT22;6119;52.372;8.990;2024-02-15T01:49:28;12.50;99.90
12111;DHT22;6119;52.372;8.990;2024-02-15T01:52:17;12.50;99.90
12111;DHT22;6119;52.372;8.990;2024-02-15T01:55:05;12.50;99.90
12111;DHT22;6119;52.372;8.990;2024-02-15T01:57:54;12.50;99.90
12111;DHT22;6119;52.372;8.990;2024-02-15T02:00:41;12.50;99.90
12111;DHT22;6119;52.372;8.990;2024-02-15T02:03:29;12.50;99.90
12111;DHT22;6119;52.372;8.990;2024-02-15T02:06:16;12.50;99.90
12111;DHT22;6119;52.372;8.990;2024-02-15T02:09:03;12.50;99.90
12111;DHT22;6119;52.372;8.990;2024-02-15T02:11:51;12.50;99.90
12111;DHT22;6119;52.372;8.990;2024-02-15T02:14:38;12.50;99.90
12111;DHT22;6119;52.372;8.990;2024-02-15T02:17:25;12.50;99.90
12111;DHT22;6119;52.372;8.990;2024-02-15T02:20:11;12.50;99.90
12111;DHT22;6119;52.372;8.990;2024-02-15T02:23:03;12.50;99.90
12111;DHT22;6119;52.372;8.990;2024-02-15T02:25:54;12.50;99.90
12111;DHT22;6119;52.372;8.990;2024-02-15T02:28:41;12.60;99.90
12111;DHT22;6119;52.372;8.990;2024-02-15T02:31:28;12.50;99.90
12111;DHT22;6119;52.372;8.990;2024-02-15T02:34:15;12.60;99.90
12111;DHT22;6119;52.372;8.990;2024-02-15T02:37:02;12.60;99.90
12111;DHT22;6119;52.372;8.990;2024-02-15T02:39:51;12.50;99.90
12111;DHT22;6119;52.372;8.990;2024-02-15T02:42:48;12.50;99.90
12111;DHT22;6119;52.372;8.990;2024-02-15T02:45:35;12.60;99.90
12111;DHT22;6119;52.372;8.990;2024-02-15T02:48:22;12.50;99.90
12111;DHT22;6119;52.372;8.990;2024-02-15T02:51:09;12.50;99.90
12111;DHT22;6119;52.372;8.990;2024-02-15T02:53:56;12.50;99.90
12111;DHT22;6119;52.372;8.990;2024-02-15T02:56:42;12.50;99.90
12111;DHT22;6119;52.372;8.990;2024-02-15T02:59:33;12.50;99.90
12111;DHT22;6119;52.372;8.990;2024-02-15T03:02:19;12.60;99.90
12111;DHT22;6119;52.372;8.990;2024-02-15T03:05:08;12.60;99.90
12111;DHT22;6119;52.372;8.990;2024-02-15T03:07:57;12.60;99.90
12111;DHT22;6119;52.372;8.990;2024-02-15T03:10:44;12.60;99.90
12111;DHT22;6119;52.372;8.990;2024-02-15T03:13:30;12.60;99.90
12111;DHT22;6119;52.372;8.990;2024-02-15T03:16:21;12.60;99.90
12111;DHT22;6119;52.372;8.990;2024-02-15T03:19:10;12.50;99.90
12111;DHT22;6119;52.372;8.990;2024-02-15T03:21:57;12.60;99.90
12111;DHT22;6119;52.372;8.990;2024-02-15T03:24:46;12.60;99.90
12111;DHT22;6119;52.372;8.990;2024-02-15T03:27:32;12.60;99.90
12111;DHT22;6119;52.372;8.990;2024-02-15T03:30:19;12.60;99.90
12111;DHT22;6119;52.372;8.990;2024-02-15T03:33:07;12.60;99.90
12111;DHT22;6119;52.372;8.990;2024-02-15T03:35:54;12.60;99.90
12111;DHT22;6119;52.372;8.990;2024-02-15T03:38:45;12.50;99.90
12111;DHT22;6119;52.372;8.990;2024-02-15T03:41:32;12.60;99.90
12111;DHT22;6119;52.372;8.990;2024-02-15T03:44:20;12.60;99.90
12111;DHT22;6119;52.372;8.990;2024-02-15T03:47:06;12.50;99.90
12111;DHT22;6119;52.372;8.990;2024-02-15T03:49:54;12.60;99.90
12111;DHT22;6119;52.372;8.990;2024-02-15T03:52:41;12.60;99.90
12111;DHT22;6119;52.372;8.990;2024-02-15T03:55:27;12.60;99.90
12111;DHT22;6119;52.372;8.990;2024-02-15T03:58:14;12.60;99.90
12111;DHT22;6119;52.372;8.990;2024-02-15T04:01:01;12.60;99.90
12111;DHT22;6119;52.372;8.990;2024-02-15T04:03:50;12.60;99.90
12111;DHT22;6119;52.372;8.990;2024-02-15T04:06:39;12.50;99.90
12111;DHT22;6119;52.372;8.990;2024-02-15T04:09:27;12.60;99.90
12111;DHT22;6119;52.372;8.990;2024-02-15T04:12:14;12.60;99.90
12111;DHT22;6119;52.372;8.990;2024-02-15T04:15:00;12.60;99.90
12111;DHT22;6119;52.372;8.990;2024-02-15T04:17:51;12.50;99.90
12111;DHT22;6119;52.372;8.990;2024-02-15T04:20:43;12.60;99.90
12111;DHT22;6119;52.372;8.990;2024-02-15T04:23:32;12.60;99.90
12111;DHT22;6119;52.372;8.990;2024-02-15T04:26:19;12.60;99.90
12111;DHT22;6119;52.372;8.990;2024-02-15T04:29:06;12.60;99.90
12111;DHT22;6119;52.372;8.990;2024-02-15T04:31:54;12.60;99.90
12111;DHT22;6119;52.372;8.990;2024-02-15T04:34:41;12.60;99.90
12111;DHT22;6119;52.372;8.990;2024-02-15T04:37:28;12.60;99.90
12111;DHT22;6119;52.372;8.990;2024-02-15T04:40:19;12.60;99.90
12111;DHT22;6119;52.372;8.990;2024-02-15T04:43:06;12.60;99.90
12111;DHT22;6119;52.372;8.990;2024-02-15T04:45:53;12.60;99.90
12111;DHT22;6119;52.372;8.990;2024-02-15T04:48:41;12.60;99.90
12111;DHT22;6119;52.372;8.990;2024-02-15T04:51:28;12.60;99.90
12111;DHT22;6119;52.372;8.990;2024-02-15T04:54:15;12.60;99.90
12111;DHT22;6119;52.372;8.990;2024-02-15T04:57:05;12.60;99.90
12111;DHT22;6119;52.372;8.990;2024-02-15T04:59:57;12.70;99.90
12111;DHT22;6119;52.372;8.990;2024-02-15T05:02:46;12.70;99.90
12111;DHT22;6119;52.372;8.990;2024-02-15T05:05:32;12.70;99.90
12111;DHT22;6119;52.372;8.990;2024-02-15T05:08:19;12.70;99.90
12111;DHT22;6119;52.372;8.990;2024-02-15T05:11:07;12.70;99.90
12111;DHT22;6119;52.372;8.990;2024-02-15T05:13:59;12.70;99.90
12111;DHT22;6119;52.372;8.990;2024-02-15T05:16:46;12.70;99.90
12111;DHT22;6119;52.372;8.990;2024-02-15T05:19:34;12.70;99.90
12111;DHT22;6119;52.372;8.990;2024-02-15T05:22:21;12.70;99.90
12111;DHT22;6119;52.372;8.990;2024-02-15T05:25:08;12.60;99.90
12111;DHT22;6119;52.372;8.990;2024-02-15T05:27:55;12.60;99.90
12111;DHT22;6119;52.372;8.990;2024-02-15T05:30:44;12.60;99.90
12111;DHT22;6119;52.372;8.990;2024-02-15T05:33:30;12.70;99.90
12111;DHT22;6119;52.372;8.990;2024-02-15T05:36:19;12.70;99.90
12111;DHT22;6119;52.372;8.990;2024-02-15T05:39:06;12.70;99.90
12111;DHT22;6119;52.372;8.990;2024-02-15T05:41:54;12.70;99.90
12111;DHT22;6119;52.372;8.990;2024-02-15T05:44:46;12.70;99.90
12111;DHT22;6119;52.372;8.990;2024-02-15T05:47:34;12.70;99.90
12111;DHT22;6119;52.372;8.990;2024-02-15T05:50:21;12.70;99.90
12111;DHT22;6119;52.372;8.990;2024-02-15T05:53:09;12.70;99.90
12111;DHT22;6119;52.372;8.990;2024-02-15T05:55:56;12.70;99.90
12111;DHT22;6119;52.372;8.990;2024-02-15T05:58:43;12.70;99.90
12111;DHT22;6119;52.372;8.990;2024-02-15T06:01:29;12.70;99.90
12111;DHT22;6119;52.372;8.990;2024-02-15T06:04:17;12.80;99.90
12111;DHT22;6119;52.372;8.990;2024-02-15T06:07:05;12.80;99.90
12111;DHT22;6119;52.372;8.990;2024-02-15T06:09:52;12.70;99.90
12111;DHT22;6119;52.372;8.990;2024-02-15T06:12:38;12.70;99.90
12111;DHT22;6119;52.372;8.990;2024-02-15T06:15:25;12.80;99.90
12111;DHT22;6119;52.372;8.990;2024-02-15T06:18:12;12.70;99.90
12111;DHT22;6119;52.372;8.990;2024-02-15T06:21:01;12.70;99.90
12111;DHT22;6119;52.372;8.990;2024-02-15T06:23:48;12.70;99.90
12111;DHT22;6119;52.372;8.990;2024-02-15T06:26:36;12.70;99.90
12111;DHT22;6119;52.372;8.990;2024-02-15T06:29:23;12.70;99.90
12111;DHT22;6119;52.372;8.990;2024-02-15T06:32:27;12.70;99.90
12111;DHT22;6119;52.372;8.990;2024-02-15T06:35:31;12.70;99.90
12111;DHT22;6119;52.372;8.990;2024-02-15T06:38:36;12.70;99.90
12111;DHT22;6119;52.372;8.990;2024-02-15T06:41:40;12.70;99.90
12111;DHT22;6119;52.372;8.990;2024-02-15T06:44:27;12.70;99.90
12111;DHT22;6119;52.372;8.990;2024-02-15T06:47:15;12.70;99.90
12111;DHT22;6119;52.372;8.990;2024-02-15T06:50:04;12.70;99.90
12111;DHT22;6119;52.372;8.990;2024-02-15T06:52:53;12.70;99.90
12111;DHT22;6119;52.372;8.990;2024-02-15T06:55:41;12.80;99.90
12111;DHT22;6119;52.372;8.990;2024-02-15T06:58:28;12.70;99.90
12111;DHT22;6119;52.372;8.990;2024-02-15T07:01:14;12.70;99.90
12111;DHT22;6119;52.372;8.990;2024-02-15T07:04:03;12.70;99.90
12111;DHT22;6119;52.372;8.990;2024-02-15T07:06:50;12.70;99.90
12111;DHT22;6119;52.372;8.990;2024-02-15T07:09:37;12.70;99.90
12111;DHT22;6119;52.372;8.990;2024-02-15T07:12:25;12.80;99.90
12111;DHT22;6119;52.372;8.990;2024-02-15T07:15:12;12.70;99.90
12111;DHT22;6119;52.372;8.990;2024-02-15T07:17:59;12.70;99.90
12111;DHT22;6119;52.372;8.990;2024-02-15T07:20:46;12.70;99.90
12111;DHT22;6119;52.372;8.990;2024-02-15T07:23:33;12.70;99.90
12111;DHT22;6119;52.372;8.990;2024-02-15T07:26:23;12.70;99.90
12111;DHT22;6119;52.372;8.990;2024-02-15T07:29:12;12.80;99.90
12111;DHT22;6119;52.372;8.990;2024-02-15T07:32:01;12.70;99.90
12111;DHT22;6119;52.372;8.990;2024-02-15T07:34:49;12.80;99.90
12111;DHT22;6119;52.372;8.990;2024-02-15T07:37:35;12.80;99.90
12111;DHT22;6119;52.372;8.990;2024-02-15T07:40:22;12.80;99.90
12111;DHT22;6119;52.372;8.990;2024-02-15T07:43:13;12.80;99.90
12111;DHT22;6119;52.372;8.990;2024-02-15T07:46:01;12.80;99.90
12111;DHT22;6119;52.372;8.990;2024-02-15T07:48:48;12.80;99.90
12111;DHT22;6119;52.372;8.990;2024-02-15T07:51:36;12.80;99.90
12111;DHT22;6119;52.372;8.990;2024-02-15T07:54:23;12.90;99.90
12111;DHT22;6119;52.372;8.990;2024-02-15T07:57:10;12.90;99.90
12111;DHT22;6119;52.372;8.990;2024-02-15T07:59:57;12.90;99.90
12111;DHT22;6119;52.372;8.990;2024-02-15T08:02:45;12.90;99.90
12111;DHT22;6119;52.372;8.990;2024-02-15T08:05:33;12.90;99.90
12111;DHT22;6119;52.372;8.990;2024-02-15T08:08:21;12.90;99.90
12111;DHT22;6119;52.372;8.990;2024-02-15T08:11:09;13.00;99.90
12111;DHT22;6119;52.372;8.990;2024-02-15T08:14:00;13.00;99.90
12111;DHT22;6119;52.372;8.990;2024-02-15T08:16:47;13.00;99.90
12111;DHT22;6119;52.372;8.990;2024-02-15T08:19:35;13.00;99.90
12111;DHT22;6119;52.372;8.990;2024-02-15T08:22:22;13.00;99.90
12111;DHT22;6119;52.372;8.990;2024-02-15T08:25:10;13.10;99.90
12111;DHT22;6119;52.372;8.990;2024-02-15T08:27:57;13.10;99.90
12111;DHT22;6119;52.372;8.990;2024-02-15T08:30:44;13.10;99.90
12111;DHT22;6119;52.372;8.990;2024-02-15T08:33:32;13.10;99.90
12111;DHT22;6119;52.372;8.990;2024-02-15T08:36:20;13.10;99.90
12111;DHT22;6119;52.372;8.990;2024-02-15T08:39:07;13.10;99.90
12111;DHT22;6119;52.372;8.990;2024-02-15T08:41:58;13.10;99.90
12111;DHT22;6119;52.372;8.990;2024-02-15T08:44:45;13.10;99.90
12111;DHT22;6119;52.372;8.990;2024-02-15T08:47:31;13.20;99.90
12111;DHT22;6119;52.372;8.990;2024-02-15T08:50:18;13.30;99.90
12111;DHT22;6119;52.372;8.990;2024-02-15T08:53:09;13.30;99.90
12111;DHT22;6119;52.372;8.990;2024-02-15T08:55:55;13.30;99.90
12111;DHT22;6119;52.372;8.990;2024-02-15T08:58:42;13.40;99.90
12111;DHT22;6119;52.372;8.990;2024-02-15T09:01:29;13.40;99.90
12111;DHT22;6119;52.372;8.990;2024-02-15T09:04:15;13.40;99.90
12111;DHT22;6119;52.372;8.990;2024-02-15T09:07:02;13.40;99.90
12111;DHT22;6119;52.372;8.990;2024-02-15T09:09:51;13.40;99.90
12111;DHT22;6119;52.372;8.990;2024-02-15T09:12:38;13.40;99.90
12111;DHT22;6119;52.372;8.990;2024-02-15T09:15:25;13.50;99.90
12111;DHT22;6119;52.372;8.990;2024-02-15T09:18:14;13.50;99.90
12111;DHT22;6119;52.372;8.990;2024-02-15T09:21:04;13.50;99.90
12111;DHT22;6119;52.372;8.990;2024-02-15T09:23:51;13.40;99.90
12111;DHT22;6119;52.372;8.990;2024-02-15T09:26:38;13.50;99.90
12111;DHT22;6119;52.372;8.990;2024-02-15T09:29:25;13.40;99.90
12111;DHT22;6119;52.372;8.990;2024-02-15T09:32:12;13.40;99.90
12111;DHT22;6119;52.372;8.990;2024-02-15T09:34:59;13.40;99.90
12111;DHT22;6119;52.372;8.990;2024-02-15T09:37:48;13.40;99.90
12111;DHT22;6119;52.372;8.990;2024-02-15T09:40:35;13.40;99.90
12111;DHT22;6119;52.372;8.990;2024-02-15T09:43:23;13.40;99.90
12111;DHT22;6119;52.372;8.990;2024-02-15T09:46:12;13.40;99.90
12111;DHT22;6119;52.372;8.990;2024-02-15T09:48:59;13.40;99.90
12111;DHT22;6119;52.372;8.990;2024-02-15T09:51:49;13.40;99.90
12111;DHT22;6119;52.372;8.990;2024-02-15T09:54:39;13.50;99.90
12111;DHT22;6119;52.372;8.990;2024-02-15T09:57:26;13.40;99.90
12111;DHT22;6119;52.372;8.990;2024-02-15T10:00:15;13.40;99.90
12111;DHT22;6119;52.372;8.990;2024-02-15T10:03:05;13.50;99.90
12111;DHT22;6119;52.372;8.990;2024-02-15T10:05:53;13.50;99.90
12111;DHT22;6119;52.372;8.990;2024-02-15T10:08:40;13.50;99.90
12111;DHT22;6119;52.372;8.990;2024-02-15T10:11:27;13.50;99.90
12111;DHT22;6119;52.372;8.990;2024-02-15T10:14:13;13.50;99.90
12111;DHT22;6119;52.372;8.990;2024-02-15T10:17:07;13.50;99.90
12111;DHT22;6119;52.372;8.990;2024-02-15T10:20:03;13.50;99.90
12111;DHT22;6119;52.372;8.990;2024-02-15T10:22:51;13.50;99.90
12111;DHT22;6119;52.372;8.990;2024-02-15T10:25:39;13.40;99.90
12111;DHT22;6119;52.372;8.990;2024-02-15T10:28:26;13.40;99.90
12111;DHT22;6119;52.372;8.990;2024-02-15T10:31:14;13.50;99.90
12111;DHT22;6119;52.372;8.990;2024-02-15T10:34:06;13.50;99.90
12111;DHT22;6119;52.372;8.990;2024-02-15T10:36:54;13.50;99.90
12111;DHT22;6119;52.372;8.990;2024-02-15T10:39:42;13.60;99.90
12111;DHT22;6119;52.372;8.990;2024-02-15T10:42:29;13.60;99.90
12111;DHT22;6119;52.372;8.990;2024-02-15T10:45:16;13.60;99.90
12111;DHT22;6119;52.372;8.990;2024-02-15T10:48:07;13.50;99.90
12111;DHT22;6119;52.372;8.990;2024-02-15T10:50:56;13.60;99.90
12111;DHT22;6119;52.372;8.990;2024-02-15T10:53:50;13.60;99.90
12111;DHT22;6119;52.372;8.990;2024-02-15T10:56:43;13.60;99.90
12111;DHT22;6119;52.372;8.990;2024-02-15T10:59:34;13.60;99.90
12111;DHT22;6119;52.372;8.990;2024-02-15T11:02:27;13.60;99.90
12111;DHT22;6119;52.372;8.990;2024-02-15T11:05:16;13.60;99.90
12111;DHT22;6119;52.372;8.990;2024-02-15T11:08:10;13.60;99.90
12111;DHT22;6119;52.372;8.990;2024-02-15T11:10:58;13.60;99.90
12111;DHT22;6119;52.372;8.990;2024-02-15T11:13:48;13.60;99.90
12111;DHT22;6119;52.372;8.990;2024-02-15T11:16:41;13.50;99.90
12111;DHT22;6119;52.372;8.990;2024-02-15T11:19:43;13.50;99.90
12111;DHT22;6119;52.372;8.990;2024-02-15T11:22:32;13.50;99.90
12111;DHT22;6119;52.372;8.990;2024-02-15T11:25:31;13.50;99.90
12111;DHT22;6119;52.372;8.990;2024-02-15T11:28:39;13.50;99.90
12111;DHT22;6119;52.372;8.990;2024-02-15T11:31:53;13.50;99.90
12111;DHT22;6119;52.372;8.990;2024-02-15T11:34:44;13.50;99.90
12111;DHT22;6119;52.372;8.990;2024-02-15T11:37:57;13.50;99.90
12111;DHT22;6119;52.372;8.990;2024-02-15T11:41:09;13.50;99.90
12111;DHT22;6119;52.372;8.990;2024-02-15T11:43:56;13.50;99.90
12111;DHT22;6119;52.372;8.990;2024-02-15T11:46:44;13.50;99.90
12111;DHT22;6119;52.372;8.990;2024-02-15T11:49:31;13.50;99.90
12111;DHT22;6119;52.372;8.990;2024-02-15T11:52:20;13.50;99.90
12111;DHT22;6119;52.372;8.990;2024-02-15T11:55:08;13.50;99.90
12111;DHT22;6119;52.372;8.990;2024-02-15T11:57:58;13.50;99.90
12111;DHT22;6119;52.372;8.990;2024-02-15T12:00:48;13.50;99.90
12111;DHT22;6119;52.372;8.990;2024-02-15T12:03:53;13.60;99.90
12111;DHT22;6119;52.372;8.990;2024-02-15T12:06:58;13.60;99.90
12111;DHT22;6119;52.372;8.990;2024-02-15T12:10:16;13.60;99.90
12111;DHT22;6119;52.372;8.990;2024-02-15T12:13:21;13.60;99.90
12111;DHT22;6119;52.372;8.990;2024-02-15T12:16:26;13.60;99.90
12111;DHT22;6119;52.372;8.990;2024-02-15T12:19:30;13.60;99.90
12111;DHT22;6119;52.372;8.990;2024-02-15T12:22:19;13.70;99.90
12111;DHT22;6119;52.372;8.990;2024-02-15T12:25:07;13.50;99.90
12111;DHT22;6119;52.372;8.990;2024-02-15T12:27:59;13.50;99.90
12111;DHT22;6119;52.372;8.990;2024-02-15T12:30:55;13.50;99.90
12111;DHT22;6119;52.372;8.990;2024-02-15T12:33:42;13.60;99.90
12111;DHT22;6119;52.372;8.990;2024-02-15T12:36:30;13.60;99.90
12111;DHT22;6119;52.372;8.990;2024-02-15T12:39:24;13.70;99.90
12111;DHT22;6119;52.372;8.990;2024-02-15T12:42:13;13.80;99.90
12111;DHT22;6119;52.372;8.990;2024-02-15T12:45:00;13.90;99.90
12111;DHT22;6119;52.372;8.990;2024-02-15T12:47:52;14.00;99.90
12111;DHT22;6119;52.372;8.990;2024-02-15T12:50:39;14.00;99.90
12111;DHT22;6119;52.372;8.990;2024-02-15T12:53:26;14.10;99.90
12111;DHT22;6119;52.372;8.990;2024-02-15T12:56:20;14.00;99.90
12111;DHT22;6119;52.372;8.990;2024-02-15T12:59:07;14.10;99.90
12111;DHT22;6119;52.372;8.990;2024-02-15T13:01:54;14.10;99.90
12111;DHT22;6119;52.372;8.990;2024-02-15T13:04:42;14.10;99.90
12111;DHT22;6119;52.372;8.990;2024-02-15T13:07:29;14.20;99.90
12111;DHT22;6119;52.372;8.990;2024-02-15T13:10:17;14.20;99.90
12111;DHT22;6119;52.372;8.990;2024-02-15T13:13:03;14.20;99.90
12111;DHT22;6119;52.372;8.990;2024-02-15T13:15:51;14.10;99.90
12111;DHT22;6119;52.372;8.990;2024-02-15T13:18:38;14.20;99.90
12111;DHT22;6119;52.372;8.990;2024-02-15T13:21:27;14.20;99.90
12111;DHT22;6119;52.372;8.990;2024-02-15T13:24:15;14.20;99.90
12111;DHT22;6119;52.372;8.990;2024-02-15T13:27:03;14.20;99.90
12111;DHT22;6119;52.372;8.990;2024-02-15T13:29:49;14.10;99.90
12111;DHT22;6119;52.372;8.990;2024-02-15T13:32:36;14.20;99.90
12111;DHT22;6119;52.372;8.990;2024-02-15T13:35:24;14.20;99.90
12111;DHT22;6119;52.372;8.990;2024-02-15T13:38:12;14.30;99.90
12111;DHT22;6119;52.372;8.990;2024-02-15T13:41:07;14.40;99.90
12111;DHT22;6119;52.372;8.990;2024-02-15T13:43:54;14.40;99.90
12111;DHT22;6119;52.372;8.990;2024-02-15T13:46:41;14.40;99.90
12111;DHT22;6119;52.372;8.990;2024-02-15T13:49:28;14.40;99.90
12111;DHT22;6119;52.372;8.990;2024-02-15T13:52:17;14.40;99.90
12111;DHT22;6119;52.372;8.990;2024-02-15T13:55:06;14.50;99.90
12111;DHT22;6119;52.372;8.990;2024-02-15T13:57:54;14.40;99.90
12111;DHT22;6119;52.372;8.990;2024-02-15T14:00:42;14.40;99.90
12111;DHT22;6119;52.372;8.990;2024-02-15T14:03:30;14.40;99.90
12111;DHT22;6119;52.372;8.990;2024-02-15T14:06:19;14.40;99.90
12111;DHT22;6119;52.372;8.990;2024-02-15T14:09:06;14.40;99.90
12111;DHT22;6119;52.372;8.990;2024-02-15T14:11:54;14.40;99.90
12111;DHT22;6119;52.372;8.990;2024-02-15T14:14:41;14.40;99.90
12111;DHT22;6119;52.372;8.990;2024-02-15T14:17:28;14.50;99.90
12111;DHT22;6119;52.372;8.990;2024-02-15T14:20:14;14.50;99.90
12111;DHT22;6119;52.372;8.990;2024-02-15T14:23:01;14.60;99.90
12111;DHT22;6119;52.372;8.990;2024-02-15T14:25:51;14.60;99.90
12111;DHT22;6119;52.372;8.990;2024-02-15T14:28:39;14.50;99.90
12111;DHT22;6119;52.372;8.990;2024-02-15T14:31:27;14.60;99.90
12111;DHT22;6119;52.372;8.990;2024-02-15T14:34:31;14.60;99.90
12111;DHT22;6119;52.372;8.990;2024-02-15T14:37:21;14.50;99.90
12111;DHT22;6119;52.372;8.990;2024-02-15T14:40:09;14.60;99.90
12111;DHT22;6119;52.372;8.990;2024-02-15T14:43:03;14.60;99.90
12111;DHT22;6119;52.372;8.990;2024-02-15T14:45:52;14.60;99.90
12111;DHT22;6119;52.372;8.990;2024-02-15T14:48:39;14.60;99.90
12111;DHT22;6119;52.372;8.990;2024-02-15T14:51:27;14.60;99.90
12111;DHT22;6119;52.372;8.990;2024-02-15T14:54:15;14.60;99.90
12111;DHT22;6119;52.372;8.990;2024-02-15T14:57:09;14.60;99.90
12111;DHT22;6119;52.372;8.990;2024-02-15T14:59:55;14.60;99.90
12111;DHT22;6119;52.372;8.990;2024-02-15T15:02:44;14.60;99.90
12111;DHT22;6119;52.372;8.990;2024-02-15T15:05:32;14.60;99.90
12111;DHT22;6119;52.372;8.990;2024-02-15T15:08:44;14.60;99.90
12111;DHT22;6119;52.372;8.990;2024-02-15T15:11:49;14.60;99.90
12111;DHT22;6119;52.372;8.990;2024-02-15T15:14:53;14.60;99.90
12111;DHT22;6119;52.372;8.990;2024-02-15T15:17:41;14.60;99.90
12111;DHT22;6119;52.372;8.990;2024-02-15T15:20:30;14.60;99.90
12111;DHT22;6119;52.372;8.990;2024-02-15T15:23:18;14.60;99.90
12111;DHT22;6119;52.372;8.990;2024-02-15T15:26:05;14.60;99.90
12111;DHT22;6119;52.372;8.990;2024-02-15T15:28:52;14.70;99.90
12111;DHT22;6119;52.372;8.990;2024-02-15T15:31:42;14.60;99.90
12111;DHT22;6119;52.372;8.990;2024-02-15T15:34:30;14.70;99.90
12111;DHT22;6119;52.372;8.990;2024-02-15T15:37:21;14.60;99.90
12111;DHT22;6119;52.372;8.990;2024-02-15T15:40:09;14.70;99.90
12111;DHT22;6119;52.372;8.990;2024-02-15T15:42:56;14.70;99.90
12111;DHT22;6119;52.372;8.990;2024-02-15T15:45:44;14.70;99.90
12111;DHT22;6119;52.372;8.990;2024-02-15T15:48:31;14.70;99.90
12111;DHT22;6119;52.372;8.990;2024-02-15T15:51:19;14.70;99.90
12111;DHT22;6119;52.372;8.990;2024-02-15T15:54:07;14.70;99.90
12111;DHT22;6119;52.372;8.990;2024-02-15T15:56:54;14.70;99.90
12111;DHT22;6119;52.372;8.990;2024-02-15T15:59:42;14.70;99.90
12111;DHT22;6119;52.372;8.990;2024-02-15T16:02:29;14.60;99.90
12111;DHT22;6119;52.372;8.990;2024-02-15T16:05:16;14.70;99.90
12111;DHT22;6119;52.372;8.990;2024-02-15T16:08:03;14.60;99.90
12111;DHT22;6119;52.372;8.990;2024-02-15T16:10:51;14.60;99.90
12111;DHT22;6119;52.372;8.990;2024-02-15T16:13:39;14.60;99.90
12111;DHT22;6119;52.372;8.990;2024-02-15T16:16:28;14.60;99.90
12111;DHT22;6119;52.372;8.990;2024-02-15T16:19:15;14.60;99.90
12111;DHT22;6119;52.372;8.990;2024-02-15T16:22:02;13.90;99.90
12111;DHT22;6119;52.372;8.990;2024-02-15T16:24:49;14.60;99.90
12111;DHT22;6119;52.372;8.990;2024-02-15T16:27:37;14.60;99.90
12111;DHT22;6119;52.372;8.990;2024-02-15T16:30:24;14.50;99.90
12111;DHT22;6119;52.372;8.990;2024-02-15T16:33:11;14.50;99.90
12111;DHT22;6119;52.372;8.990;2024-02-15T16:35:58;14.50;99.90
12111;DHT22;6119;52.372;8.990;2024-02-15T16:38:45;14.50;99.90
12111;DHT22;6119;52.372;8.990;2024-02-15T16:41:31;14.50;99.90
12111;DHT22;6119;52.372;8.990;2024-02-15T16:44:19;14.50;99.90
12111;DHT22;6119;52.372;8.990;2024-02-15T16:47:06;14.40;99.90
12111;DHT22;6119;52.372;8.990;2024-02-15T16:49:55;14.30;99.90
12111;DHT22;6119;52.372;8.990;2024-02-15T16:52:43;14.30;99.90
12111;DHT22;6119;52.372;8.990;2024-02-15T16:55:29;14.30;99.90
12111;DHT22;6119;52.372;8.990;2024-02-15T16:58:17;14.20;99.90
12111;DHT22;6119;52.372;8.990;2024-02-15T17:01:07;14.30;99.90
12111;DHT22;6119;52.372;8.990;2024-02-15T17:03:56;14.20;99.90
12111;DHT22;6119;52.372;8.990;2024-02-15T17:06:44;14.20;99.90
12111;DHT22;6119;52.372;8.990;2024-02-15T17:09:31;14.20;99.90
12111;DHT22;6119;52.372;8.990;2024-02-15T17:12:18;14.20;99.90
12111;DHT22;6119;52.372;8.990;2024-02-15T17:15:05;14.20;99.90
12111;DHT22;6119;52.372;8.990;2024-02-15T17:17:55;14.10;99.90
12111;DHT22;6119;52.372;8.990;2024-02-15T17:20:42;14.10;99.90
12111;DHT22;6119;52.372;8.990;2024-02-15T17:23:29;14.10;99.90
12111;DHT22;6119;52.372;8.990;2024-02-15T17:26:16;14.00;99.90
12111;DHT22;6119;52.372;8.990;2024-02-15T17:29:03;14.10;99.90
12111;DHT22;6119;52.372;8.990;2024-02-15T17:31:53;14.10;99.90
12111;DHT22;6119;52.372;8.990;2024-02-15T17:34:41;14.10;99.90
12111;DHT22;6119;52.372;8.990;2024-02-15T17:37:28;14.00;99.90
12111;DHT22;6119;52.372;8.990;2024-02-15T17:40:14;14.00;99.90
12111;DHT22;6119;52.372;8.990;2024-02-15T17:43:02;14.00;99.90
12111;DHT22;6119;52.372;8.990;2024-02-15T17:45:48;14.00;99.90
12111;DHT22;6119;52.372;8.990;2024-02-15T17:48:35;13.90;99.90
12111;DHT22;6119;52.372;8.990;2024-02-15T17:51:23;14.00;99.90
12111;DHT22;6119;52.372;8.990;2024-02-15T17:54:10;13.90;99.90
12111;DHT22;6119;52.372;8.990;2024-02-15T17:56:57;13.90;99.90
12111;DHT22;6119;52.372;8.990;2024-02-15T17:59:45;13.90;99.90
12111;DHT22;6119;52.372;8.990;2024-02-15T18:02:32;13.90;99.90